METAR Reports From Nearby Airports

 

KLUD - Decatur, Texas, USA
Distance from Wildwood: ESE 5mi, 8km
Mise à jour: Aug 08, 2022 10:55pm
clair
clair
 Wind from SSE
Vent: SSE 5 mph , 7 km/h
Température: 91°F , 33°C
Point de rosée: 61°F , 16°C
Humidité: 36%
Baromètre: 30.02 inHg , 1016.6 hPa
Clouds: clair
Visibility: 7 miles , 11 km
2022/08/09 03:55 KLUD 090355Z AUTO 16004KT 7SM CLR 33/16 A3002 RMK AO2 T03270155
KXBP - Bridgeport, Texas, USA
Distance from Wildwood: OSO 11mi, 18km
Mise à jour: Aug 08, 2022 10:55pm
clair
clair
 Wind from SSE
Vent: SSE 5 mph , 7 km/h
Température: 88°F , 31°C
Point de rosée: 59°F , 15°C
Humidité: 38%
Baromètre: 30.02 inHg , 1016.6 hPa
Clouds: clair
Visibility: 10 miles , 16 km
2022/08/09 03:55 KXBP 090355Z AUTO 16004KT 10SM CLR 31/15 A3002 RMK AO2 T03090151
 
K0F2 - Bowie, Texas, USA
Distance from Wildwood: NNO 24mi, 39km
Mise à jour: Aug 08, 2022 10:55pm
Partly Cloudy
Partly Cloudy
 Wind from SSE
Vent: SSE 3 mph , 6 km/h
Température: 86°F , 30°C
Heat Index: 88°F , 31°C
Point de rosée: 64°F , 18°C
Humidité: 49%
Baromètre: 30.02 inHg , 1016.6 hPa
Clouds: Partly Cloudy
Visibility: 10 miles , 16 km
Cloud details: Partly Cloudy 12000 ft
2022/08/09 03:55 K0F2 090355Z AUTO 15003KT 10SM SCT120 30/18 A3002 RMK AO2 T03000178
KDTO - Denton, Texas, USA
Distance from Wildwood: E 27mi, 44km
Mise à jour: Aug 08, 2022 10:53pm
clair
clair
 Wind from SE
Vent: SE 7 mph , 11 km/h
Température: 91°F , 33°C
Heat Index: 93°F , 34°C
Point de rosée: 64°F , 18°C
Humidité: 41%
Baromètre: 30.00 inHg , 1015.9 hPa
Clouds: clair
Visibility: 10 miles , 16 km
2022/08/09 03:53 KDTO 090353Z AUTO 14006KT 10SM CLR 33/18 A3000 RMK AO2 SLP146 T03280178
 
KAFW - Ft Worth/Allianc, Texas, USA
Distance from Wildwood: SE 29mi, 46km
Mise à jour: Aug 08, 2022 10:53pm
Partly Cloudy
Partly Cloudy
 Wind from SSE
Vent: SSE 9 mph , 15 km/h
Température: 93°F , 34°C
Point de rosée: 63°F , 17°C
Humidité: 36%
Baromètre: 29.98 inHg , 1015.2 hPa
Clouds: Partly Cloudy
Visibility: 10 miles , 16 km
Cloud details: Few Clouds 8000 ft
Partly Cloudy 30000 ft
2022/08/09 03:53 KAFW 090353Z 15008KT 10SM FEW080 SCT300 34/17 A2998 RMK AO2 SLP133 T03390167
KFTW - Fort Worth, Texas, USA
Distance from Wildwood: SSE 34mi, 55km
Mise à jour: Aug 08, 2022 10:53pm
clair
clair
 Wind from SE
Vent: SE 8 mph , 13 km/h
Température: 91°F , 33°C
Point de rosée: 63°F , 17°C
Humidité: 38%
Baromètre: 29.99 inHg , 1015.6 hPa
Clouds: clair
Visibility: 10 miles , 16 km
2022/08/09 03:53 KFTW 090353Z 14007KT 10SM CLR 33/17 A2999 RMK AO2 SLP144 T03330167
 
KNFW - Fort Worth Nas, Texas, USA
Distance from Wildwood: SSE 36mi, 58km
Mise à jour: Aug 08, 2022 10:52pm
Partly Cloudy
Partly Cloudy
 Wind from SSE
Vent: SSE 7 mph , 11 km/h
Température: 95°F , 35°C
Point de rosée: 64°F , 18°C
Humidité: 36%
Baromètre: 30.00 inHg , 1015.9 hPa
Clouds: Partly Cloudy
Visibility: 10 miles , 16 km
Cloud details: Partly Cloudy 25000 ft
2022/08/09 03:52 KNFW 090352Z 15006KT 10SM SCT250 35/18 A3000 RMK SLP141 T03460177
KGLE - Gainesville, Texas, USA
Distance from Wildwood: NE 38mi, 61km
Mise à jour: Aug 08, 2022 10:55pm
clair
clair
 Wind from SSE
Vent: SSE 3 mph , 6 km/h
Température: 88°F , 31°C
Heat Index: 88°F , 31°C
Point de rosée: 61°F , 16°C
Humidité: 40%
Baromètre: 30.02 inHg , 1016.6 hPa
Clouds: clair
Visibility: 10 miles , 16 km
2022/08/09 03:55 KGLE 090355Z AUTO 15003KT 10SM CLR 31/16 A3002 RMK AO2 T03050163
 
KMWL - Mineral Wells, Texas, USA
Distance from Wildwood: SO 41mi, 65km
Mise à jour: Aug 08, 2022 10:53pm
clair
clair
 Wind from SSE
Vent: SSE 7 mph , 11 km/h
Température: 90°F , 32°C
Point de rosée: 59°F , 15°C
Humidité: 36%
Baromètre: 30.00 inHg , 1015.9 hPa
Clouds: clair
Visibility: 10 miles , 16 km
2022/08/09 03:53 KMWL 090353Z AUTO 16006KT 10SM CLR 32/15 A3000 RMK AO2 SLP139 T03220150
KDFW - Dallas/Ft Worth, Texas, USA
Distance from Wildwood: ESE 45mi, 73km
Mise à jour: Aug 08, 2022 10:53pm
Partly Cloudy
Partly Cloudy
 Wind from SSE
Vent: SSE 9 mph , 15 km/h
Température: 93°F , 34°C
Point de rosée: 61°F , 16°C
Humidité: 34%
Baromètre: 29.98 inHg , 1015.2 hPa
Clouds: Partly Cloudy
Visibility: 10 miles , 16 km
Cloud details: Few Clouds 9000 ft
Partly Cloudy 25000 ft
2022/08/09 03:53 KDFW 090353Z 15008KT 10SM FEW090 SCT250 34/16 A2998 RMK AO2 SLP142 OCNL LTGIC DSNT NE CB DSNT NE MOV S T03390161